IBE0455 LEMD-LEXJ
Flight info
| Callsign | IBE0455 |
|---|---|
| Flight time | N/A |
| Altitude | 24000 |
| Route | SIE N865 BUGIX R753 EMANU |
| Aircraft | A320/M-SDE3FGHIRWY/LB1 |
Departure
| Time | N/A |
|---|---|
| Airport | Adolfo Suárez Madrid–Barajas Airport (LEMD) |
Arrival
| Time | 2026-05-01 07:50 |
|---|---|
| Airport | Seve Ballesteros-Santander Airport (LEXJ) |
| Time | Latitude | Longitude | Altitude | Speed | Heading |
|---|---|---|---|---|---|
| 2026-05-01 07:23 | 41.60222 | -3.61385 | 23991 ft | 422 kts | 358° |
| 2026-05-01 07:23 | 41.66115 | -3.61367 | 24153 ft | 423 kts | 358° |
| 2026-05-01 07:24 | 41.69058 | -3.61363 | 24156 ft | 423 kts | 358° |
| 2026-05-01 07:24 | 41.72006 | -3.61360 | 24158 ft | 423 kts | 358° |
| 2026-05-01 07:24 | 41.74959 | -3.61359 | 24153 ft | 424 kts | 358° |
| 2026-05-01 07:24 | 41.77907 | -3.61359 | 24155 ft | 424 kts | 358° |
| 2026-05-01 07:25 | 41.80856 | -3.61359 | 24148 ft | 424 kts | 358° |
| 2026-05-01 07:25 | 41.83802 | -3.61359 | 24154 ft | 424 kts | 358° |
| 2026-05-01 07:25 | 41.86715 | -3.61360 | 24148 ft | 424 kts | 358° |
| 2026-05-01 07:25 | 41.89670 | -3.61360 | 24153 ft | 424 kts | 358° |
| 2026-05-01 07:26 | 41.92622 | -3.61360 | 24157 ft | 424 kts | 358° |
| 2026-05-01 07:26 | 41.95573 | -3.61359 | 24153 ft | 424 kts | 359° |
| 2026-05-01 07:26 | 41.98529 | -3.61359 | 24155 ft | 424 kts | 359° |
| 2026-05-01 07:26 | 42.01471 | -3.61361 | 24150 ft | 424 kts | 358° |
| 2026-05-01 07:27 | 42.04419 | -3.61443 | 24149 ft | 424 kts | 356° |
| 2026-05-01 07:27 | 42.07362 | -3.61605 | 24151 ft | 423 kts | 356° |
| 2026-05-01 07:27 | 42.10307 | -3.61806 | 24158 ft | 423 kts | 355° |
| 2026-05-01 07:27 | 42.13209 | -3.62016 | 24156 ft | 423 kts | 355° |
| 2026-05-01 07:28 | 42.16154 | -3.62228 | 24157 ft | 423 kts | 355° |
| 2026-05-01 07:28 | 42.19097 | -3.62435 | 24173 ft | 423 kts | 356° |
| 2026-05-01 07:28 | 42.22034 | -3.62634 | 24180 ft | 423 kts | 356° |
| 2026-05-01 07:28 | 42.24975 | -3.62828 | 24181 ft | 423 kts | 356° |
| 2026-05-01 07:29 | 42.27916 | -3.63020 | 24180 ft | 423 kts | 356° |
| 2026-05-01 07:29 | 42.30854 | -3.63209 | 24184 ft | 423 kts | 356° |
| 2026-05-01 07:29 | 42.33797 | -3.63399 | 24180 ft | 423 kts | 356° |
| 2026-05-01 07:29 | 42.36718 | -3.63786 | 24182 ft | 422 kts | 352° |
| 2026-05-01 07:30 | 42.39634 | -3.64282 | 24179 ft | 422 kts | 351° |
| 2026-05-01 07:30 | 42.42543 | -3.64827 | 24183 ft | 421 kts | 351° |
| 2026-05-01 07:30 | 42.45443 | -3.65399 | 24183 ft | 421 kts | 351° |
| 2026-05-01 07:30 | 42.48344 | -3.65983 | 24180 ft | 421 kts | 350° |
| 2026-05-01 07:31 | 42.51242 | -3.66571 | 24160 ft | 421 kts | 350° |
| 2026-05-01 07:31 | 42.59879 | -3.68311 | 23447 ft | 418 kts | 351° |
| 2026-05-01 07:32 | 42.65615 | -3.69458 | 22903 ft | 415 kts | 351° |
| 2026-05-01 07:32 | 42.68459 | -3.70069 | 22633 ft | 413 kts | 348° |
| 2026-05-01 07:33 | 42.74035 | -3.71657 | 21742 ft | 406 kts | 346° |
| 2026-05-01 07:33 | 42.76793 | -3.72475 | 21106 ft | 405 kts | 346° |
| 2026-05-01 07:33 | 42.82290 | -3.74101 | 19840 ft | 403 kts | 346° |
| 2026-05-01 07:34 | 42.85030 | -3.74909 | 19209 ft | 402 kts | 346° |
| 2026-05-01 07:34 | 42.90489 | -3.76521 | 17888 ft | 400 kts | 346° |
| 2026-05-01 07:34 | 42.93169 | -3.77311 | 17257 ft | 397 kts | 346° |
| 2026-05-01 07:35 | 42.95865 | -3.78089 | 16650 ft | 394 kts | 347° |
| 2026-05-01 07:35 | 42.98548 | -3.78773 | 16024 ft | 391 kts | 348° |
| 2026-05-01 07:35 | 43.01223 | -3.79429 | 15407 ft | 388 kts | 348° |
| 2026-05-01 07:35 | 43.03874 | -3.80076 | 14789 ft | 386 kts | 348° |
| 2026-05-01 07:36 | 43.06497 | -3.80717 | 14163 ft | 383 kts | 348° |
| 2026-05-01 07:36 | 43.09127 | -3.81362 | 13511 ft | 381 kts | 348° |
| 2026-05-01 07:36 | 43.11722 | -3.82001 | 12900 ft | 377 kts | 349° |
| 2026-05-01 07:36 | 43.14255 | -3.82624 | 12317 ft | 372 kts | 349° |
| 2026-05-01 07:37 | 43.19313 | -3.83871 | 11131 ft | 366 kts | 349° |
| 2026-05-01 07:37 | 43.21810 | -3.84488 | 10544 ft | 363 kts | 349° |
| 2026-05-01 07:37 | 43.24261 | -3.85092 | 10295 ft | 350 kts | 349° |
| 2026-05-01 07:38 | 43.26598 | -3.85668 | 10202 ft | 333 kts | 349° |
| 2026-05-01 07:38 | 43.28829 | -3.86219 | 10085 ft | 319 kts | 349° |
| 2026-05-01 07:38 | 43.33055 | -3.87267 | 9515 ft | 303 kts | 349° |
| 2026-05-01 07:39 | 43.35128 | -3.87783 | 9148 ft | 299 kts | 349° |
| 2026-05-01 07:39 | 43.37135 | -3.88282 | 8960 ft | 289 kts | 349° |
| 2026-05-01 07:39 | 43.41018 | -3.89251 | 8325 ft | 280 kts | 349° |
| 2026-05-01 07:40 | 43.42892 | -3.89796 | 7967 ft | 278 kts | 342° |
| 2026-05-01 07:40 | 43.44586 | -3.91009 | 7590 ft | 274 kts | 318° |
| 2026-05-01 07:40 | 43.45744 | -3.93042 | 7209 ft | 270 kts | 295° |
| 2026-05-01 07:40 | 43.46489 | -3.95399 | 6842 ft | 268 kts | 289° |
| 2026-05-01 07:41 | 43.47144 | -3.97787 | 6478 ft | 266 kts | 289° |
| 2026-05-01 07:41 | 43.47788 | -4.00168 | 6090 ft | 265 kts | 289° |
| 2026-05-01 07:41 | 43.49077 | -4.04876 | 5521 ft | 255 kts | 289° |
| 2026-05-01 07:42 | 43.49629 | -4.07142 | 5378 ft | 245 kts | 280° |
| 2026-05-01 07:42 | 43.49677 | -4.09417 | 5235 ft | 232 kts | 257° |
| 2026-05-01 07:42 | 43.49072 | -4.11403 | 5077 ft | 221 kts | 232° |
| 2026-05-01 07:42 | 43.47973 | -4.12806 | 4912 ft | 212 kts | 208° |
| 2026-05-01 07:43 | 43.46641 | -4.13460 | 4770 ft | 198 kts | 187° |
| 2026-05-01 07:43 | 43.45335 | -4.13404 | 4609 ft | 185 kts | 167° |
| 2026-05-01 07:43 | 43.43287 | -4.11717 | 4170 ft | 169 kts | 130° |
| 2026-05-01 07:44 | 43.42426 | -4.08807 | 3538 ft | 166 kts | 94° |
| 2026-05-01 07:44 | 43.42965 | -4.05784 | 2901 ft | 164 kts | 59° |
| 2026-05-01 07:45 | 43.43649 | -4.04522 | 2562 ft | 165 kts | 51° |
| 2026-05-01 07:45 | 43.44389 | -4.03341 | 2331 ft | 159 kts | 50° |
| 2026-05-01 07:45 | 43.45095 | -4.02233 | 2151 ft | 149 kts | 50° |
| 2026-05-01 07:45 | 43.45763 | -4.01177 | 1886 ft | 145 kts | 50° |
| 2026-05-01 07:46 | 43.46382 | -4.00100 | 1793 ft | 142 kts | 59° |
| 2026-05-01 07:46 | 43.46759 | -3.98887 | 1593 ft | 136 kts | 78° |
| 2026-05-01 07:46 | 43.46542 | -3.96345 | 1401 ft | 132 kts | 109° |
| 2026-05-01 07:47 | 43.46230 | -3.95169 | 1400 ft | 130 kts | 110° |
| 2026-05-01 07:47 | 43.45921 | -3.94023 | 1393 ft | 129 kts | 109° |
| 2026-05-01 07:47 | 43.45609 | -3.92863 | 1398 ft | 129 kts | 110° |
| 2026-05-01 07:47 | 43.45297 | -3.91702 | 1284 ft | 131 kts | 109° |
| 2026-05-01 07:48 | 43.44679 | -3.89380 | 887 ft | 128 kts | 109° |
| 2026-05-01 07:48 | 43.44379 | -3.88233 | 692 ft | 127 kts | 109° |
| 2026-05-01 07:48 | 43.44082 | -3.87088 | 545 ft | 127 kts | 108° |
| 2026-05-01 07:49 | 43.43789 | -3.85940 | 406 ft | 127 kts | 108° |
| 2026-05-01 07:49 | 43.43155 | -3.83658 | 95 ft | 128 kts | 108° |
| 2026-05-01 07:49 | 43.42871 | -3.82567 | 25 ft | 111 kts | 109° |
| 2026-05-01 07:50 | 43.42646 | -3.81783 | 25 ft | 72 kts | 110° |
| 2026-05-01 07:50 | 43.42481 | -3.81306 | 25 ft | 8 kts | 185° |
| 2026-05-01 07:50 | 43.42419 | -3.81320 | 23 ft | 8 kts | 203° |
| 2026-05-01 07:51 | 43.42383 | -3.81352 | 23 ft | 4 kts | 242° |
| 2026-05-01 07:51 | 43.42380 | -3.81403 | 22 ft | 6 kts | 282° |
| 2026-05-01 07:51 | 43.42390 | -3.81455 | 23 ft | 6 kts | 288° |
| 2026-05-01 07:52 | 43.42436 | -3.81626 | 24 ft | 13 kts | 291° |
| 2026-05-01 07:52 | 43.42471 | -3.81753 | 22 ft | 16 kts | 290° |
| 2026-05-01 07:52 | 43.42508 | -3.81897 | 22 ft | 16 kts | 290° |
| 2026-05-01 07:53 | 43.42424 | -3.82096 | 23 ft | 14 kts | 199° |
| 2026-05-01 07:53 | 43.42398 | -3.82172 | 22 ft | 8 kts | 282° |
| 2026-05-01 07:53 | 43.42405 | -3.82241 | 22 ft | 7 kts | 251° |
| 2026-05-01 07:53 | 43.42381 | -3.82286 | 22 ft | 4 kts | 207° |
| 2026-05-01 07:54 | 43.42373 | -3.82289 | 22 ft | 0 kts | 198° |